Time;durP1;ratioP1;P1;durP2;ratioP2;P2;SDS_P1;SDS_P2;PMS_P1;PMS_P2;Temp;Humidity;BMP_temperature;BMP_pressure;BME280_temperature;BME280_humidity;BME280_pressure;Samples;Min_cycle;Max_cycle;Signal;HPM_P1;HPM_P2
2022/03/14 00:02:19;;;;;;;;;;;14.50;49.90;;;;;;5075406;28;19924;-69
2022/03/14 00:04:48;;;;;;;;;;;14.60;50.00;;;;;;5093362;28;20269;-70
2022/03/14 00:07:18;;;;;;;;;;;14.50;49.90;;;;;;5093334;28;20447;-69
2022/03/14 00:09:45;;;;;;;;;;;14.50;49.90;;;;;;5075419;28;19932;-68
2022/03/14 00:12:19;;;;;;;;;;;14.50;49.90;;;;;;5075286;28;19928;-69
2022/03/14 00:14:50;;;;;;;;;;;14.50;49.90;;;;;;5093098;28;19960;-69
2022/03/14 00:17:18;;;;;;;;;;;14.50;49.90;;;;;;5075220;28;19924;-69
2022/03/14 00:19:47;;;;;;;;;;;14.50;50.00;;;;;;5093018;28;20327;-70
2022/03/14 00:22:15;;;;;;;;;;;14.50;50.00;;;;;;5074808;28;19924;-69
2022/03/14 00:24:41;;;;;;;;;;;14.50;50.00;;;;;;5092691;28;19950;-69
2022/03/14 00:27:08;;;;;;;;;;;14.50;50.00;;;;;;5075228;28;20392;-69
2022/03/14 00:29:34;;;;;;;;;;;14.50;50.00;;;;;;5075186;28;20385;-70
2022/03/14 00:32:02;;;;;;;;;;;14.50;50.00;;;;;;5092214;28;20292;-68
2022/03/14 00:34:29;;;;;;;;;;;14.50;50.00;;;;;;5092965;28;19932;-68
2022/03/14 00:36:55;;;;;;;;;;;14.40;49.90;;;;;;5074861;28;19930;-69
2022/03/14 00:39:22;;;;;;;;;;;14.40;49.90;;;;;;5075025;28;19924;-69
2022/03/14 00:41:49;;;;;;;;;;;14.40;49.90;;;;;;5092782;28;19924;-68
2022/03/14 00:44:15;;;;;;;;;;;14.50;50.00;;;;;;5074744;28;19924;-68
2022/03/14 00:46:42;;;;;;;;;;;14.40;50.00;;;;;;5092641;28;19924;-69
2022/03/14 00:49:10;;;;;;;;;;;14.40;49.90;;;;;;5093054;28;19982;-69
2022/03/14 00:51:37;;;;;;;;;;;14.40;49.90;;;;;;5092432;28;20407;-69
2022/03/14 00:54:04;;;;;;;;;;;14.40;49.90;;;;;;5074501;28;20373;-68
2022/03/14 00:56:30;;;;;;;;;;;14.40;50.00;;;;;;5092718;28;19925;-70
2022/03/14 00:58:59;;;;;;;;;;;14.40;49.90;;;;;;5074780;28;19924;-69
2022/03/14 01:01:26;;;;;;;;;;;14.40;49.90;;;;;;5092872;28;20015;-68
2022/03/14 01:03:53;;;;;;;;;;;14.30;49.90;;;;;;5091657;28;19930;-69
2022/03/14 01:06:20;;;;;;;;;;;14.30;49.90;;;;;;5092332;28;19930;-70
2022/03/14 01:08:47;;;;;;;;;;;14.40;50.00;;;;;;5074652;28;19924;-69
2022/03/14 01:11:14;;;;;;;;;;;14.40;50.00;;;;;;5092805;28;19946;-70
2022/03/14 01:13:40;;;;;;;;;;;14.30;50.00;;;;;;5092221;28;19931;-69
2022/03/14 01:16:07;;;;;;;;;;;14.30;50.00;;;;;;5092310;28;19931;-69
2022/03/14 01:18:36;;;;;;;;;;;14.30;50.00;;;;;;5091993;28;19930;-69
2022/03/14 01:21:03;;;;;;;;;;;14.30;49.90;;;;;;5092428;28;19931;-69
2022/03/14 01:23:31;;;;;;;;;;;14.30;49.90;;;;;;5074254;28;19932;-69
2022/03/14 01:25:57;;;;;;;;;;;14.30;49.90;;;;;;5074627;28;19924;-70
2022/03/14 01:28:24;;;;;;;;;;;14.30;50.00;;;;;;5092201;28;19930;-69
2022/03/14 01:30:51;;;;;;;;;;;14.30;50.00;;;;;;5092315;28;20383;-69
2022/03/14 01:33:17;;;;;;;;;;;14.30;50.00;;;;;;5074163;28;20291;-69
2022/03/14 01:35:44;;;;;;;;;;;14.30;50.00;;;;;;5074894;28;19930;-69
2022/03/14 01:38:11;;;;;;;;;;;14.30;50.60;;;;;;5078104;28;19944;-67
2022/03/14 01:40:39;;;;;;;;;;;14.30;50.10;;;;;;5078215;28;20015;-69
2022/03/14 01:43:06;;;;;;;;;;;14.30;50.00;;;;;;5095943;28;20410;-69
2022/03/14 01:45:32;;;;;;;;;;;14.30;50.00;;;;;;5078070;28;19923;-69
2022/03/14 01:47:59;;;;;;;;;;;14.30;50.10;;;;;;5077963;28;19943;-68
2022/03/14 01:50:26;;;;;;;;;;;14.30;50.10;;;;;;5095557;28;19942;-69
2022/03/14 01:52:52;;;;;;;;;;;14.30;50.10;;;;;;5077874;28;19924;-69
2022/03/14 01:55:19;;;;;;;;;;;14.30;50.10;;;;;;5096187;28;19924;-69
2022/03/14 01:57:47;;;;;;;;;;;14.40;50.20;;;;;;5095652;28;20369;-69
2022/03/14 02:00:14;;;;;;;;;;;14.30;50.10;;;;;;5077969;28;19924;-70
2022/03/14 02:02:41;;;;;;;;;;;14.30;50.00;;;;;;5095860;28;19924;-70
2022/03/14 02:05:08;;;;;;;;;;;14.30;50.00;;;;;;5077443;28;19924;-69
2022/03/14 02:07:34;;;;;;;;;;;14.30;50.00;;;;;;5077379;28;19928;-69
2022/03/14 02:10:01;;;;;;;;;;;14.30;50.00;;;;;;5077609;28;19924;-69
2022/03/14 02:12:28;;;;;;;;;;;14.40;50.10;;;;;;5077573;28;20014;-68
2022/03/14 02:14:55;;;;;;;;;;;14.40;50.10;;;;;;5095523;28;20408;-69
2022/03/14 02:17:22;;;;;;;;;;;14.30;50.00;;;;;;5095734;28;19924;-69
2022/03/14 02:19:49;;;;;;;;;;;14.40;50.00;;;;;;5077295;28;19924;-69
2022/03/14 02:22:17;;;;;;;;;;;14.30;50.00;;;;;;5094929;28;19928;-69
2022/03/14 02:24:45;;;;;;;;;;;14.40;50.00;;;;;;5077537;28;19930;-68
2022/03/14 02:27:13;;;;;;;;;;;14.40;50.10;;;;;;5095446;28;19924;-69
2022/03/14 02:29:40;;;;;;;;;;;14.30;50.00;;;;;;5095644;28;19959;-69
2022/03/14 02:32:07;;;;;;;;;;;14.40;50.10;;;;;;5095023;28;19924;-67
2022/03/14 02:34:34;;;;;;;;;;;14.40;50.10;;;;;;5076927;28;20311;-69
2022/03/14 02:37:02;;;;;;;;;;;14.30;50.00;;;;;;5077166;28;20316;-68
2022/03/14 02:39:32;;;;;;;;;;;14.30;50.00;;;;;;5076824;28;19930;-69
2022/03/14 02:41:58;;;;;;;;;;;14.30;50.00;;;;;;5094869;28;19925;-69
2022/03/14 02:44:25;;;;;;;;;;;14.30;50.10;;;;;;5094818;28;19956;-68
2022/03/14 02:46:51;;;;;;;;;;;14.30;50.10;;;;;;5094730;28;19931;-69
2022/03/14 02:49:18;;;;;;;;;;;14.30;50.10;;;;;;5076730;28;19931;-69
2022/03/14 02:51:46;;;;;;;;;;;14.30;50.10;;;;;;5094553;28;19931;-67
2022/03/14 02:54:12;;;;;;;;;;;14.30;50.10;;;;;;5076809;28;19924;-69
2022/03/14 02:56:41;;;;;;;;;;;14.30;50.10;;;;;;5094776;28;20398;-69
2022/03/14 02:59:07;;;;;;;;;;;14.30;50.10;;;;;;5076401;28;19971;-69
2022/03/14 03:01:34;;;;;;;;;;;14.30;50.10;;;;;;5076920;28;20344;-69
2022/03/14 03:04:00;;;;;;;;;;;14.30;50.10;;;;;;5094195;28;20013;-69
2022/03/14 03:06:27;;;;;;;;;;;14.30;50.10;;;;;;5076529;28;19924;-68
2022/03/14 03:08:54;;;;;;;;;;;14.30;50.10;;;;;;5094353;28;19924;-68
2022/03/14 03:11:21;;;;;;;;;;;14.30;50.10;;;;;;5094632;28;19924;-69
2022/03/14 03:13:49;;;;;;;;;;;14.30;50.10;;;;;;5076378;28;19924;-68
2022/03/14 03:16:16;;;;;;;;;;;14.40;50.20;;;;;;5094660;28;20384;-69
2022/03/14 03:18:43;;;;;;;;;;;14.30;50.10;;;;;;5094410;28;19924;-69
2022/03/14 03:21:09;;;;;;;;;;;14.30;50.10;;;;;;5094219;28;19959;-68
2022/03/14 03:23:36;;;;;;;;;;;14.30;50.10;;;;;;5093801;28;19928;-68
2022/03/14 03:26:04;;;;;;;;;;;14.40;50.20;;;;;;5076458;28;19970;-69
2022/03/14 03:28:35;;;;;;;;;;;14.40;50.20;;;;;;5076368;28;19931;-69
2022/03/14 03:31:04;;;;;;;;;;;14.40;50.20;;;;;;5094288;28;19924;-69
2022/03/14 03:33:31;;;;;;;;;;;14.40;50.20;;;;;;5093670;28;19930;-69
2022/03/14 03:35:58;;;;;;;;;;;14.70;50.30;;;;;;5093769;28;19924;-69
2022/03/14 03:38:25;;;;;;;;;;;14.40;50.20;;;;;;5093928;28;19928;-69
2022/03/14 03:40:51;;;;;;;;;;;14.40;50.20;;;;;;5093949;28;20283;-69
2022/03/14 03:43:18;;;;;;;;;;;14.40;50.20;;;;;;5093714;28;20331;-68
2022/03/14 03:45:44;;;;;;;;;;;14.40;50.20;;;;;;5093550;28;20296;-69
2022/03/14 03:48:12;;;;;;;;;;;14.50;50.20;;;;;;5075892;28;19946;-69
2022/03/14 03:50:39;;;;;;;;;;;14.40;50.20;;;;;;5093536;28;19946;-69
2022/03/14 03:53:05;;;;;;;;;;;14.40;50.10;;;;;;5093354;28;19950;-69
2022/03/14 03:55:32;;;;;;;;;;;14.40;50.10;;;;;;5093833;28;19924;-69
2022/03/14 03:57:58;;;;;;;;;;;14.50;50.20;;;;;;5092549;28;20389;-69
2022/03/14 04:00:25;;;;;;;;;;;14.50;50.20;;;;;;5093264;28;20300;-69
2022/03/14 04:02:52;;;;;;;;;;;14.50;50.20;;;;;;5075170;28;19924;-69
2022/03/14 04:05:22;;;;;;;;;;;14.50;50.20;;;;;;5093043;28;19960;-69
2022/03/14 04:07:48;;;;;;;;;;;14.50;50.20;;;;;;5075023;28;20019;-69
2022/03/14 04:10:15;;;;;;;;;;;14.50;50.20;;;;;;5075238;28;19963;-69
2022/03/14 04:12:44;;;;;;;;;;;14.50;50.10;;;;;;5075155;28;20015;-69
2022/03/14 04:15:10;;;;;;;;;;;14.50;50.10;;;;;;5075257;28;19938;-69
2022/03/14 04:17:37;;;;;;;;;;;14.50;50.20;;;;;;5092918;28;19927;-68
2022/03/14 04:20:04;;;;;;;;;;;14.50;50.20;;;;;;5092967;28;20297;-69
2022/03/14 04:22:32;;;;;;;;;;;14.50;50.10;;;;;;5075001;28;19925;-69
2022/03/14 04:24:58;;;;;;;;;;;14.50;50.20;;;;;;5092657;28;19924;-69
2022/03/14 04:27:25;;;;;;;;;;;14.50;50.10;;;;;;5093012;28;19928;-68
2022/03/14 04:29:52;;;;;;;;;;;14.60;50.20;;;;;;5074839;28;19924;-69
2022/03/14 04:32:18;;;;;;;;;;;14.50;50.10;;;;;;5074419;28;20350;-70
2022/03/14 04:34:45;;;;;;;;;;;14.60;50.20;;;;;;5074550;28;20296;-69
2022/03/14 04:37:14;;;;;;;;;;;14.50;50.10;;;;;;5074557;28;19949;-68
2022/03/14 04:39:41;;;;;;;;;;;14.60;50.20;;;;;;5074466;28;20299;-69
2022/03/14 04:42:08;;;;;;;;;;;14.60;50.20;;;;;;5070297;28;19930;-69
2022/03/14 04:44:35;;;;;;;;;;;14.60;50.20;;;;;;5071107;28;20007;-69
2022/03/14 04:47:02;;;;;;;;;;;14.60;50.20;;;;;;5072607;28;19970;-69
2022/03/14 04:49:29;;;;;;;;;;;14.60;50.20;;;;;;5072571;28;20308;-69
2022/03/14 04:51:55;;;;;;;;;;;14.60;50.20;;;;;;5071104;28;19932;-69
2022/03/14 04:54:22;;;;;;;;;;;14.60;50.20;;;;;;5071171;28;19925;-68
2022/03/14 04:56:50;;;;;;;;;;;14.60;50.20;;;;;;5080135;28;20307;-68
2022/03/14 04:59:16;;;;;;;;;;;14.60;50.20;;;;;;5074231;28;20311;-68
2022/03/14 05:01:43;;;;;;;;;;;14.60;50.20;;;;;;5074076;28;20292;-69
2022/03/14 05:04:10;;;;;;;;;;;14.60;50.20;;;;;;5092015;28;19924;-69
2022/03/14 05:06:37;;;;;;;;;;;14.60;50.20;;;;;;5074548;28;20019;-68
2022/03/14 05:09:05;;;;;;;;;;;14.60;50.20;;;;;;5074109;28;20253;-69
2022/03/14 05:11:32;;;;;;;;;;;14.60;50.20;;;;;;5074381;28;19933;-69
2022/03/14 05:14:01;;;;;;;;;;;14.60;50.20;;;;;;5091756;28;19931;-69
2022/03/14 05:16:28;;;;;;;;;;;14.60;50.20;;;;;;5092204;28;19932;-69
2022/03/14 05:18:55;;;;;;;;;;;14.60;50.20;;;;;;5092152;28;19930;-68
2022/03/14 05:21:21;;;;;;;;;;;14.60;50.20;;;;;;5092016;28;19924;-69
2022/03/14 05:23:48;;;;;;;;;;;14.60;50.20;;;;;;5092104;28;19924;-69
2022/03/14 05:26:14;;;;;;;;;;;14.60;50.20;;;;;;5092183;28;19924;-69
2022/03/14 05:28:41;;;;;;;;;;;14.60;50.20;;;;;;5091738;28;19924;-68
2022/03/14 05:31:09;;;;;;;;;;;14.60;50.20;;;;;;5074383;28;19924;-69
2022/03/14 05:33:35;;;;;;;;;;;14.60;50.20;;;;;;5073665;28;19931;-69
2022/03/14 05:36:02;;;;;;;;;;;14.60;50.20;;;;;;5092123;28;20303;-69
2022/03/14 05:38:28;;;;;;;;;;;14.60;50.20;;;;;;5092320;28;20281;-69
2022/03/14 05:40:55;;;;;;;;;;;14.60;50.20;;;;;;5074300;28;19924;-67
2022/03/14 05:43:26;;;;;;;;;;;14.60;50.20;;;;;;5091581;28;20436;-69
2022/03/14 05:45:53;;;;;;;;;;;14.60;50.20;;;;;;5074026;28;20345;-69
2022/03/14 05:48:21;;;;;;;;;;;14.60;50.20;;;;;;5073568;28;19971;-69
2022/03/14 05:50:47;;;;;;;;;;;14.60;50.20;;;;;;5092038;28;19928;-68
2022/03/14 05:53:14;;;;;;;;;;;14.60;50.20;;;;;;5073831;28;19924;-68
2022/03/14 05:55:40;;;;;;;;;;;14.60;50.20;;;;;;5091935;28;19925;-68
2022/03/14 05:58:08;;;;;;;;;;;14.60;50.30;;;;;;5073915;28;19928;-69
2022/03/14 06:00:36;;;;;;;;;;;14.60;50.20;;;;;;5073534;28;20292;-69
2022/03/14 06:03:02;;;;;;;;;;;14.60;50.30;;;;;;5073656;28;19924;-69
2022/03/14 06:05:30;;;;;;;;;;;14.60;50.30;;;;;;5073949;28;19925;-69
2022/03/14 06:07:57;;;;;;;;;;;14.60;50.30;;;;;;5091902;28;20308;-69
2022/03/14 06:10:25;;;;;;;;;;;14.60;50.30;;;;;;5074019;28;20383;-69
2022/03/14 06:12:51;;;;;;;;;;;14.60;50.30;;;;;;5073767;28;20431;-69
2022/03/14 06:15:18;;;;;;;;;;;14.60;50.30;;;;;;5091766;28;20304;-68
2022/03/14 06:17:45;;;;;;;;;;;14.60;50.30;;;;;;5091518;28;19924;-69
2022/03/14 06:20:12;;;;;;;;;;;14.60;50.30;;;;;;5091300;28;20296;-69
2022/03/14 06:22:40;;;;;;;;;;;14.60;50.30;;;;;;5093777;28;19924;-69
2022/03/14 06:25:07;;;;;;;;;;;14.60;50.30;;;;;;5077295;28;19925;-68
2022/03/14 06:27:33;;;;;;;;;;;14.60;50.30;;;;;;5077385;28;19931;-69
2022/03/14 06:30:00;;;;;;;;;;;14.60;50.30;;;;;;5077337;28;19924;-69
2022/03/14 06:32:26;;;;;;;;;;;14.60;50.30;;;;;;5094757;28;20396;-69
2022/03/14 06:34:53;;;;;;;;;;;14.60;50.30;;;;;;5076941;28;19924;-68
2022/03/14 06:37:19;;;;;;;;;;;14.60;50.40;;;;;;5095085;28;20376;-69
2022/03/14 06:39:47;;;;;;;;;;;14.60;50.30;;;;;;5076933;28;19928;-69
2022/03/14 06:42:14;;;;;;;;;;;14.60;50.30;;;;;;5094809;28;20388;-69
2022/03/14 06:44:41;;;;;;;;;;;14.60;50.40;;;;;;5095140;28;20060;-69
2022/03/14 06:47:08;;;;;;;;;;;14.60;50.40;;;;;;5094622;28;19928;-69
2022/03/14 06:49:35;;;;;;;;;;;14.60;50.40;;;;;;5076753;28;19924;-69
2022/03/14 06:52:02;;;;;;;;;;;14.60;50.30;;;;;;5076849;28;19981;-69
2022/03/14 06:54:28;;;;;;;;;;;14.70;50.40;;;;;;5094824;28;19928;-69
2022/03/14 06:56:56;;;;;;;;;;;14.70;50.40;;;;;;5076618;28;19931;-68
2022/03/14 06:59:23;;;;;;;;;;;14.70;50.40;;;;;;5094624;28;19932;-69
2022/03/14 07:01:50;;;;;;;;;;;14.70;50.40;;;;;;5076049;28;20295;-68
2022/03/14 07:04:16;;;;;;;;;;;14.70;50.40;;;;;;5094326;28;20295;-69
2022/03/14 07:06:45;;;;;;;;;;;14.70;50.40;;;;;;5093458;28;21334;-69
2022/03/14 07:09:12;;;;;;;;;;;14.70;50.40;;;;;;5094287;28;19924;-69
2022/03/14 07:11:38;;;;;;;;;;;14.70;50.40;;;;;;5094635;28;20394;-69
2022/03/14 07:14:07;;;;;;;;;;;14.70;50.40;;;;;;5076224;28;19950;-69
2022/03/14 07:16:33;;;;;;;;;;;14.70;50.40;;;;;;5094351;28;19928;-69
2022/03/14 07:19:00;;;;;;;;;;;14.70;50.40;;;;;;5093563;28;19924;-69
2022/03/14 07:21:28;;;;;;;;;;;14.70;50.40;;;;;;5094392;28;20244;-68
2022/03/14 07:23:55;;;;;;;;;;;14.70;50.40;;;;;;5094061;28;19930;-69
2022/03/14 07:26:21;;;;;;;;;;;14.70;50.40;;;;;;5094199;28;19924;-69
2022/03/14 07:28:48;;;;;;;;;;;14.70;50.40;;;;;;5094163;28;19928;-68
2022/03/14 07:31:17;;;;;;;;;;;14.70;50.40;;;;;;5093584;28;20296;-69
2022/03/14 07:33:44;;;;;;;;;;;14.70;50.70;;;;;;5075020;28;19924;-67
2022/03/14 07:36:11;;;;;;;;;;;14.70;50.70;;;;;;5074998;28;19924;-67
2022/03/14 07:38:37;;;;;;;;;;;14.70;50.60;;;;;;5093880;28;19928;-67
2022/03/14 07:41:04;;;;;;;;;;;14.80;50.60;;;;;;5076065;28;19924;-69
2022/03/14 07:43:30;;;;;;;;;;;14.80;50.50;;;;;;5093446;28;20300;-67
2022/03/14 07:45:57;;;;;;;;;;;14.80;50.50;;;;;;5093768;28;20300;-68
2022/03/14 07:48:25;;;;;;;;;;;14.90;50.50;;;;;;5075568;28;20307;-69
2022/03/14 07:50:52;;;;;;;;;;;14.90;50.50;;;;;;5093682;28;19924;-70
2022/03/14 07:53:18;;;;;;;;;;;14.90;50.50;;;;;;5092878;28;19993;-70
2022/03/14 07:55:45;;;;;;;;;;;14.90;50.40;;;;;;5075412;28;19931;-70
2022/03/14 07:58:11;;;;;;;;;;;15.00;50.40;;;;;;5075148;28;19930;-70
2022/03/14 08:00:38;;;;;;;;;;;15.00;50.40;;;;;;5092814;28;19934;-70
2022/03/14 08:03:04;;;;;;;;;;;15.00;50.30;;;;;;5092676;28;20015;-70
2022/03/14 08:05:33;;;;;;;;;;;15.00;50.30;;;;;;5075466;28;19924;-69
2022/03/14 08:08:02;;;;;;;;;;;15.00;50.30;;;;;;5075425;28;19924;-69
2022/03/14 08:10:29;;;;;;;;;;;15.10;50.30;;;;;;5075074;28;19928;-70
2022/03/14 08:12:56;;;;;;;;;;;15.10;50.30;;;;;;5074175;28;19924;-68
2022/03/14 08:15:23;;;;;;;;;;;15.10;50.20;;;;;;5093026;28;19924;-69
2022/03/14 08:17:49;;;;;;;;;;;15.10;50.20;;;;;;5074848;28;19924;-68
2022/03/14 08:20:16;;;;;;;;;;;15.20;50.30;;;;;;5093217;28;19924;-70
2022/03/14 08:22:44;;;;;;;;;;;15.20;50.20;;;;;;5074716;28;19924;-70
2022/03/14 08:25:11;;;;;;;;;;;15.20;50.20;;;;;;5074905;28;20395;-70
2022/03/14 08:27:38;;;;;;;;;;;15.20;50.20;;;;;;5075167;28;19924;-69
2022/03/14 08:30:05;;;;;;;;;;;15.30;50.20;;;;;;5092682;28;20351;-71
2022/03/14 08:32:32;;;;;;;;;;;15.20;50.10;;;;;;5074734;28;19928;-69
2022/03/14 08:35:06;;;;;;;;;;;15.30;50.10;;;;;;5074896;28;19928;-70
2022/03/14 08:37:33;;;;;;;;;;;15.30;50.10;;;;;;5075218;28;19924;-70
2022/03/14 08:40:01;;;;;;;;;;;15.30;50.10;;;;;;5074576;28;19924;-71
2022/03/14 08:42:27;;;;;;;;;;;15.30;50.10;;;;;;5074748;28;20402;-70
2022/03/14 08:44:54;;;;;;;;;;;15.30;50.70;;;;;;5074414;28;20341;-70
2022/03/14 08:47:20;;;;;;;;;;;15.40;50.10;;;;;;5073905;28;20364;-70
2022/03/14 08:49:47;;;;;;;;;;;15.30;50.00;;;;;;5073599;28;20373;-70
2022/03/14 08:52:13;;;;;;;;;;;15.40;50.10;;;;;;5092551;28;20368;-68
2022/03/14 08:54:40;;;;;;;;;;;15.40;50.10;;;;;;5092821;28;20287;-68
2022/03/14 08:57:08;;;;;;;;;;;15.40;50.20;;;;;;5092456;28;20299;-68
2022/03/14 08:59:34;;;;;;;;;;;15.40;50.30;;;;;;5092708;28;19924;-67
2022/03/14 09:02:01;;;;;;;;;;;15.50;50.30;;;;;;5092705;28;19924;-69
2022/03/14 09:04:27;;;;;;;;;;;15.60;50.20;;;;;;5092324;28;19924;-69
2022/03/14 09:06:55;;;;;;;;;;;15.60;50.20;;;;;;5092374;28;19924;-68
2022/03/14 09:09:22;;;;;;;;;;;15.60;50.20;;;;;;5092537;28;19999;-68
2022/03/14 09:11:48;;;;;;;;;;;15.70;50.70;;;;;;5092716;28;20007;-69
2022/03/14 09:14:16;;;;;;;;;;;15.70;50.10;;;;;;5092413;28;20307;-68
2022/03/14 09:16:44;;;;;;;;;;;15.70;50.00;;;;;;5092453;28;19939;-67
2022/03/14 09:19:12;;;;;;;;;;;15.70;50.10;;;;;;5092379;28;20385;-68
2022/03/14 09:21:38;;;;;;;;;;;15.70;50.00;;;;;;5092165;28;20409;-68
2022/03/14 09:24:06;;;;;;;;;;;15.80;50.00;;;;;;5092037;28;20393;-68
2022/03/14 09:26:35;;;;;;;;;;;15.80;49.90;;;;;;5074482;28;19967;-66
2022/03/14 09:29:01;;;;;;;;;;;15.80;49.90;;;;;;5092310;28;20007;-67
2022/03/14 09:31:30;;;;;;;;;;;15.90;50.00;;;;;;5092668;28;20020;-67
2022/03/14 09:33:56;;;;;;;;;;;15.90;49.90;;;;;;5092098;28;19924;-66
2022/03/14 09:36:23;;;;;;;;;;;15.90;49.80;;;;;;5074063;28;19924;-68
2022/03/14 09:38:49;;;;;;;;;;;15.90;49.90;;;;;;5073375;28;19931;-69
2022/03/14 09:41:17;;;;;;;;;;;15.90;50.40;;;;;;5092352;28;20331;-69
2022/03/14 09:43:45;;;;;;;;;;;16.30;50.00;;;;;;5091957;28;19924;-69
2022/03/14 09:46:12;;;;;;;;;;;15.90;49.80;;;;;;5074280;28;20003;-69
2022/03/14 09:48:41;;;;;;;;;;;15.90;49.80;;;;;;5092471;28;19923;-69
2022/03/14 09:51:07;;;;;;;;;;;16.00;49.90;;;;;;5092381;28;19924;-69
2022/03/14 09:53:34;;;;;;;;;;;15.90;49.80;;;;;;5091706;28;19931;-69
2022/03/14 09:56:01;;;;;;;;;;;15.90;49.70;;;;;;5091940;28;19928;-69
2022/03/14 09:58:27;;;;;;;;;;;16.00;49.80;;;;;;5095987;28;19931;-70
2022/03/14 10:00:54;;;;;;;;;;;16.00;49.80;;;;;;5096005;28;19979;-70
2022/03/14 10:03:21;;;;;;;;;;;16.00;49.80;;;;;;5095412;28;20305;-69
2022/03/14 10:05:49;;;;;;;;;;;16.00;49.70;;;;;;5096336;28;19924;-69
2022/03/14 10:08:15;;;;;;;;;;;16.00;49.80;;;;;;5077933;28;20365;-69
2022/03/14 10:10:43;;;;;;;;;;;16.00;49.70;;;;;;5095680;28;19978;-69
2022/03/14 10:13:10;;;;;;;;;;;16.00;49.80;;;;;;5094978;28;20381;-69
2022/03/14 10:15:37;;;;;;;;;;;16.00;49.80;;;;;;5095666;28;19969;-69
2022/03/14 10:18:10;;;;;;;;;;;16.00;49.70;;;;;;5061107;28;20007;-69
2022/03/14 10:20:36;;;;;;;;;;;16.00;49.70;;;;;;5077470;28;20400;-68
2022/03/14 10:23:04;;;;;;;;;;;16.00;49.70;;;;;;5077345;28;20007;-67
2022/03/14 10:25:31;;;;;;;;;;;16.10;49.80;;;;;;5077194;28;19924;-67
2022/03/14 10:27:58;;;;;;;;;;;16.00;49.70;;;;;;5095204;28;19982;-67
2022/03/14 10:30:25;;;;;;;;;;;16.10;49.80;;;;;;5095504;28;19990;-67
2022/03/14 10:32:53;;;;;;;;;;;16.10;49.80;;;;;;5095142;28;19928;-66
2022/03/14 10:35:20;;;;;;;;;;;16.10;49.70;;;;;;5077445;28;20338;-67
2022/03/14 10:37:57;;;;;;;;;;;16.10;49.70;;;;;;5095017;28;19928;-68
2022/03/14 10:40:27;;;;;;;;;;;16.10;49.80;;;;;;5094983;28;19924;-66
2022/03/14 10:42:54;;;;;;;;;;;16.10;49.80;;;;;;5093659;28;19931;-68
2022/03/14 10:45:20;;;;;;;;;;;16.10;49.90;;;;;;5094251;28;19935;-67
2022/03/14 10:47:47;;;;;;;;;;;16.10;49.90;;;;;;5076341;28;20419;-69
2022/03/14 10:50:33;;;;;;;;;;;16.00;49.90;;;;;;5076730;28;19971;-68
2022/03/14 10:53:00;;;;;;;;;;;16.10;50.00;;;;;;5074877;28;19936;-68
2022/03/14 10:55:35;;;;;;;;;;;16.00;50.00;;;;;;5076498;28;19928;-68
2022/03/14 10:58:07;;;;;;;;;;;16.00;50.00;;;;;;5094114;28;20297;-69
2022/03/14 11:00:44;;;;;;;;;;;16.00;50.10;;;;;;5092243;28;20392;-68
2022/03/14 11:03:10;;;;;;;;;;;15.90;50.10;;;;;;5091405;28;19931;-68
2022/03/14 11:05:43;;;;;;;;;;;16.00;50.20;;;;;;5076462;28;19970;-67
2022/03/14 11:08:22;;;;;;;;;;;15.90;50.20;;;;;;5073024;28;19978;-68
2022/03/14 11:10:50;;;;;;;;;;;15.90;50.20;;;;;;5093418;28;19924;-67
2022/03/14 11:13:19;;;;;;;;;;;15.90;50.20;;;;;;5075804;28;19978;-68
2022/03/14 11:15:46;;;;;;;;;;;15.90;50.30;;;;;;5074639;28;19931;-67
2022/03/14 11:18:13;;;;;;;;;;;15.90;50.30;;;;;;5094123;28;20010;-68
2022/03/14 11:20:40;;;;;;;;;;;15.80;50.30;;;;;;5075678;28;19924;-68
2022/03/14 11:23:07;;;;;;;;;;;15.80;50.30;;;;;;5073273;28;19967;-68
2022/03/14 11:25:33;;;;;;;;;;;15.80;50.30;;;;;;5093591;28;20009;-67
2022/03/14 11:28:01;;;;;;;;;;;15.80;50.40;;;;;;5075935;28;19932;-67
2022/03/14 11:30:29;;;;;;;;;;;15.80;50.40;;;;;;5094041;28;20376;-67
2022/03/14 11:32:57;;;;;;;;;;;15.70;51.00;;;;;;5094000;28;19928;-68
2022/03/14 11:35:24;;;;;;;;;;;15.70;50.40;;;;;;5093902;28;19924;-67
2022/03/14 11:37:50;;;;;;;;;;;15.80;50.50;;;;;;5094165;28;20296;-67
2022/03/14 11:40:17;;;;;;;;;;;15.70;50.50;;;;;;5075786;28;20289;-68
2022/03/14 11:42:44;;;;;;;;;;;15.70;50.50;;;;;;5093891;28;19955;-67
2022/03/14 11:45:11;;;;;;;;;;;15.70;50.50;;;;;;5076102;28;19928;-67
2022/03/14 11:47:38;;;;;;;;;;;15.70;50.50;;;;;;5090027;28;19946;-68
2022/03/14 11:50:05;;;;;;;;;;;15.70;50.60;;;;;;5092818;28;19931;-67
2022/03/14 11:52:35;;;;;;;;;;;15.70;50.60;;;;;;5092879;28;19931;-68
2022/03/14 11:55:02;;;;;;;;;;;15.70;50.60;;;;;;5072811;28;19924;-68
2022/03/14 11:57:35;;;;;;;;;;;15.70;50.60;;;;;;5093750;28;20372;-68
2022/03/14 12:00:21;;;;;;;;;;;15.60;50.50;;;;;;5092863;28;19924;-68
2022/03/14 12:02:49;;;;;;;;;;;15.60;50.60;;;;;;5093412;28;19928;-68
2022/03/14 12:05:18;;;;;;;;;;;15.60;50.70;;;;;;5075170;28;20288;-68
2022/03/14 12:07:45;;;;;;;;;;;15.60;50.70;;;;;;5075570;28;19924;-67
2022/03/14 12:10:32;;;;;;;;;;;15.60;50.70;;;;;;5093586;28;19924;-67
2022/03/14 12:12:59;;;;;;;;;;;15.60;50.70;;;;;;5068223;28;19924;-67
2022/03/14 12:15:38;;;;;;;;;;;15.60;50.80;;;;;;5093329;28;19924;-68
2022/03/14 12:18:13;;;;;;;;;;;15.60;50.80;;;;;;5073474;28;19928;-68
2022/03/14 12:20:40;;;;;;;;;;;15.60;50.80;;;;;;5074653;28;19930;-67
2022/03/14 12:23:18;;;;;;;;;;;15.60;50.80;;;;;;5092958;28;19946;-68
2022/03/14 12:25:44;;;;;;;;;;;15.60;50.80;;;;;;5093039;28;19924;-68
2022/03/14 12:28:30;;;;;;;;;;;15.60;50.80;;;;;;5093363;28;19934;-67
2022/03/14 12:30:58;;;;;;;;;;;15.60;50.80;;;;;;5092326;28;20524;-67
2022/03/14 12:33:32;;;;;;;;;;;15.60;50.80;;;;;;5092569;28;19983;-68
2022/03/14 12:36:01;;;;;;;;;;;15.60;50.90;;;;;;5074321;28;19973;-68
2022/03/14 12:38:28;;;;;;;;;;;15.60;50.90;;;;;;5092527;28;20339;-69
2022/03/14 12:40:56;;;;;;;;;;;15.60;50.80;;;;;;5092287;28;19924;-69
2022/03/14 12:43:24;;;;;;;;;;;15.50;50.80;;;;;;5071352;28;19924;-69
2022/03/14 12:45:51;;;;;;;;;;;15.50;50.90;;;;;;5091957;28;19935;-69
2022/03/14 12:48:19;;;;;;;;;;;15.50;50.80;;;;;;5092208;28;19954;-67
2022/03/14 12:51:06;;;;;;;;;;;15.50;50.80;;;;;;5091551;28;19924;-68
2022/03/14 12:53:54;;;;;;;;;;;15.50;50.80;;;;;;5072822;28;20342;-68
2022/03/14 12:56:26;;;;;;;;;;;15.50;50.80;;;;;;5071546;28;19931;-68
2022/03/14 12:58:56;;;;;;;;;;;15.50;50.90;;;;;;5092231;28;19924;-67
2022/03/14 13:01:23;;;;;;;;;;;15.50;50.90;;;;;;5074017;28;20019;-68
2022/03/14 13:03:50;;;;;;;;;;;15.50;50.80;;;;;;5091877;28;20315;-68
2022/03/14 13:06:17;;;;;;;;;;;15.50;50.90;;;;;;5074006;28;20311;-69
2022/03/14 13:08:47;;;;;;;;;;;15.50;50.90;;;;;;5089473;28;20299;-68
2022/03/14 13:11:14;;;;;;;;;;;15.50;50.90;;;;;;5092297;28;19924;-68
2022/03/14 13:13:42;;;;;;;;;;;15.50;50.90;;;;;;5092333;28;19972;-67
2022/03/14 13:16:09;;;;;;;;;;;15.50;50.90;;;;;;5092678;28;19924;-68
2022/03/14 13:18:36;;;;;;;;;;;15.50;50.90;;;;;;5074288;28;19924;-68
2022/03/14 13:21:10;;;;;;;;;;;15.50;50.90;;;;;;5092350;28;19932;-68
2022/03/14 13:23:37;;;;;;;;;;;15.60;51.00;;;;;;5074221;28;20003;-68
2022/03/14 13:26:04;;;;;;;;;;;15.50;50.90;;;;;;5091878;28;20571;-68
2022/03/14 13:28:31;;;;;;;;;;;15.60;51.00;;;;;;5090294;28;19932;-67
2022/03/14 13:31:00;;;;;;;;;;;15.60;51.00;;;;;;5075806;28;19924;-68
2022/03/14 13:33:27;;;;;;;;;;;15.60;50.90;;;;;;5078423;28;19956;-68
2022/03/14 13:35:54;;;;;;;;;;;15.50;50.90;;;;;;5096386;28;20007;-68
2022/03/14 13:38:30;;;;;;;;;;;15.60;51.00;;;;;;5078531;28;20373;-68
2022/03/14 13:40:57;;;;;;;;;;;15.60;51.00;;;;;;5095043;28;19924;-68
2022/03/14 13:43:23;;;;;;;;;;;15.60;51.20;;;;;;5090293;28;20037;-68
2022/03/14 13:45:50;;;;;;;;;;;15.60;51.20;;;;;;5093684;28;20315;-68
2022/03/14 13:48:22;;;;;;;;;;;15.70;51.20;;;;;;5077864;28;19977;-68
2022/03/14 13:50:49;;;;;;;;;;;15.70;51.20;;;;;;5074537;28;19978;-68
2022/03/14 13:53:20;;;;;;;;;;;15.70;51.30;;;;;;5076290;28;20014;-68
2022/03/14 13:55:51;;;;;;;;;;;15.70;51.20;;;;;;5095565;28;19931;-68
2022/03/14 13:58:23;;;;;;;;;;;15.80;51.20;;;;;;5094078;28;19973;-70
2022/03/14 14:00:50;;;;;;;;;;;15.80;51.10;;;;;;5076958;28;19930;-70
2022/03/14 14:03:22;;;;;;;;;;;15.70;51.10;;;;;;5092627;28;20015;-70
2022/03/14 14:05:51;;;;;;;;;;;15.70;51.10;;;;;;5084882;28;20292;-70
2022/03/14 14:08:29;;;;;;;;;;;15.80;51.10;;;;;;5095443;28;19924;-70
2022/03/14 14:10:58;;;;;;;;;;;15.80;51.00;;;;;;5094892;28;19928;-67
2022/03/14 14:13:25;;;;;;;;;;;15.90;51.10;;;;;;5092593;28;20287;-68
2022/03/14 14:15:52;;;;;;;;;;;15.80;51.00;;;;;;5094596;28;20392;-70
2022/03/14 14:18:19;;;;;;;;;;;15.90;51.00;;;;;;5095153;28;19931;-70
2022/03/14 14:20:47;;;;;;;;;;;15.80;50.90;;;;;;5094386;28;19970;-70